createdAt,value
2022-08-05T00:00:25.895Z,20.96
2022-08-05T00:02:54.041Z,20.99
2022-08-05T00:05:27.167Z,21.00
2022-08-05T00:08:32.460Z,20.97
2022-08-05T00:11:00.694Z,20.98
2022-08-05T00:13:38.941Z,20.85
2022-08-05T00:16:10.861Z,20.98
2022-08-05T00:18:44.489Z,20.96
2022-08-05T00:21:14.468Z,20.97
2022-08-05T00:23:46.873Z,20.95
2022-08-05T00:26:22.377Z,20.96
2022-08-05T00:28:51.150Z,20.94
2022-08-05T00:31:53.591Z,20.93
2022-08-05T00:34:54.485Z,20.90
2022-08-05T00:37:11.391Z,20.82
2022-08-05T00:39:57.173Z,20.85
2022-08-05T00:42:32.785Z,20.84
2022-08-05T00:45:01.207Z,20.84
2022-08-05T00:47:53.337Z,20.84
2022-08-05T00:50:18.647Z,20.85
2022-08-05T00:52:49.017Z,20.86
2022-08-05T00:55:16.880Z,20.80
2022-08-05T00:57:58.554Z,20.84
2022-08-05T01:00:28.383Z,20.87
2022-08-05T01:02:59.864Z,20.88
2022-08-05T01:05:28.280Z,20.85
2022-08-05T01:08:41.597Z,20.81
2022-08-05T01:10:51.699Z,20.88
2022-08-05T01:13:57.734Z,20.91
2022-08-05T01:16:26.215Z,20.94
2022-08-05T01:19:00.891Z,20.96
2022-08-05T01:21:50.468Z,20.95
2022-08-05T01:24:38.749Z,20.98
2022-08-05T01:27:19.207Z,20.96
2022-08-05T01:29:53.699Z,20.98
2022-08-05T01:32:27.643Z,21.00
2022-08-05T01:34:59.678Z,21.00
2022-08-05T01:37:36.952Z,20.98
2022-08-05T01:40:14.074Z,20.97
2022-08-05T01:42:48.498Z,20.97
2022-08-05T01:45:19.417Z,20.95
2022-08-05T01:47:50.581Z,20.67
2022-08-05T01:50:28.569Z,20.67
2022-08-05T01:53:01.344Z,20.92
2022-08-05T01:55:36.264Z,20.89
2022-08-05T01:58:10.897Z,20.84
2022-08-05T02:00:50.184Z,20.79
2022-08-05T02:03:29.011Z,20.76
2022-08-05T02:06:03.369Z,20.77
2022-08-05T02:08:32.357Z,20.73
2022-08-05T02:11:06.190Z,20.72
2022-08-05T02:13:53.811Z,20.68
2022-08-05T02:16:27.616Z,20.67
2022-08-05T02:19:00.083Z,20.72
2022-08-05T02:21:40.320Z,20.76
2022-08-05T02:24:23.238Z,20.79
2022-08-05T02:26:55.538Z,20.81
2022-08-05T02:29:59.556Z,20.59
2022-08-05T02:32:23.833Z,20.57
2022-08-05T02:34:59.204Z,20.84
2022-08-05T02:37:34.255Z,20.83
2022-08-05T02:40:04.531Z,20.84
2022-08-05T02:42:38.869Z,20.57
2022-08-05T02:45:10.356Z,20.82
2022-08-05T02:48:06.711Z,20.82
2022-08-05T02:50:30.121Z,20.78
2022-08-05T02:52:59.138Z,20.78
2022-08-05T02:55:54.885Z,20.73
2022-08-05T02:58:17.956Z,20.74
2022-08-05T03:00:50.920Z,20.69
2022-08-05T03:03:23.607Z,20.73
2022-08-05T03:06:56.883Z,20.74
2022-08-05T03:08:43.308Z,20.73
2022-08-05T03:11:53.199Z,20.69
2022-08-05T03:14:08.379Z,20.65
2022-08-05T03:16:36.433Z,20.58
2022-08-05T03:19:12.655Z,20.40
2022-08-05T03:21:48.863Z,20.51
2022-08-05T03:24:29.341Z,20.51
2022-08-05T03:26:58.180Z,20.40
2022-08-05T03:29:45.880Z,20.21
2022-08-05T03:32:15.573Z,20.54
2022-08-05T03:34:50.714Z,20.53
2022-08-05T03:37:21.127Z,20.46
2022-08-05T03:40:00.877Z,20.54
2022-08-05T03:42:32.912Z,20.47
2022-08-05T03:45:21.880Z,20.41
2022-08-05T03:47:51.507Z,20.39
2022-08-05T03:50:21.626Z,20.41
2022-08-05T03:55:06.741Z,20.44
2022-08-05T03:56:12.053Z,20.50
2022-08-05T03:58:45.954Z,20.38
2022-08-05T04:01:20.696Z,20.50
2022-08-05T04:04:09.227Z,20.51
2022-08-05T04:06:42.805Z,20.15
2022-08-05T04:09:20.257Z,20.44
2022-08-05T04:11:54.331Z,20.49
2022-08-05T04:14:29.517Z,20.40
2022-08-05T04:16:59.611Z,20.34
2022-08-05T04:19:28.562Z,20.27
2022-08-05T04:22:09.046Z,19.96
2022-08-05T04:24:44.065Z,19.81
2022-08-05T04:27:13.686Z,20.04
2022-08-05T04:29:42.051Z,19.95
2022-08-05T04:32:10.915Z,19.85
2022-08-05T04:34:42.668Z,19.81
2022-08-05T04:37:20.766Z,19.80
2022-08-05T04:39:59.443Z,19.70
2022-08-05T04:42:27.517Z,19.61
2022-08-05T04:44:55.395Z,19.59
2022-08-05T04:47:23.438Z,19.59
2022-08-05T04:50:02.733Z,19.35
2022-08-05T04:52:40.273Z,19.61
2022-08-05T04:55:14.254Z,19.61
2022-08-05T04:57:47.744Z,19.65
2022-08-05T05:00:23.686Z,19.68
2022-08-05T05:02:52.473Z,19.72
2022-08-05T05:05:28.056Z,19.75
2022-08-05T05:08:02.404Z,19.78
2022-08-05T05:10:33.295Z,19.80
2022-08-05T05:13:03.644Z,19.81
2022-08-05T05:16:01.851Z,19.82
2022-08-05T05:18:28.753Z,19.82
2022-08-05T05:21:02.004Z,19.81
2022-08-05T05:23:39.310Z,19.83
2022-08-05T05:26:28.619Z,19.81
2022-08-05T05:29:01.208Z,19.83
2022-08-05T05:34:02.338Z,19.85
2022-08-05T05:36:31.455Z,19.86
2022-08-05T05:39:03.799Z,19.70
2022-08-05T05:41:40.468Z,19.89
2022-08-05T05:44:36.898Z,19.94
2022-08-05T05:46:58.434Z,19.90
2022-08-05T05:49:31.974Z,20.06
2022-08-05T05:52:01.505Z,20.11
2022-08-05T05:54:50.128Z,19.94
2022-08-05T05:57:19.546Z,20.26
2022-08-05T05:59:49.011Z,20.24
2022-08-05T06:02:17.243Z,20.47
2022-08-05T06:05:01.397Z,20.53
2022-08-05T06:07:41.274Z,20.72
2022-08-05T06:10:12.784Z,20.87
2022-08-05T06:12:42.192Z,21.01
2022-08-05T06:15:23.728Z,21.04
2022-08-05T06:17:54.483Z,21.29
2022-08-05T06:20:23.149Z,21.42
2022-08-05T06:22:51.344Z,21.51
2022-08-05T06:25:24.527Z,21.51
2022-08-05T06:28:12.585Z,21.71
2022-08-05T06:30:49.676Z,21.82
2022-08-05T06:33:19.387Z,21.88
2022-08-05T06:36:06.972Z,21.93
2022-08-05T06:38:37.874Z,21.88
2022-08-05T06:41:08.345Z,21.98
2022-08-05T06:43:57.782Z,22.10
2022-08-05T06:46:30.123Z,22.05
2022-08-05T06:48:59.487Z,22.26
2022-08-05T06:51:30.072Z,22.37
2022-08-05T06:54:02.178Z,22.47
2022-08-05T06:56:34.762Z,22.51
2022-08-05T06:59:03.201Z,22.51
2022-08-05T07:01:32.405Z,22.47
2022-08-05T07:04:01.498Z,22.52
2022-08-05T07:06:31.908Z,22.61
2022-08-05T07:09:04.101Z,22.73
2022-08-05T07:11:36.940Z,22.87
2022-08-05T07:14:29.739Z,23.01
2022-08-05T07:17:58.470Z,23.17
2022-08-05T07:20:34.053Z,23.37
2022-08-05T07:22:38.997Z,23.59
2022-08-05T07:25:21.780Z,23.84
2022-08-05T07:27:58.296Z,24.03
2022-08-05T07:30:32.723Z,24.55
2022-08-05T07:33:01.687Z,24.74
2022-08-05T07:36:02.307Z,25.10
2022-08-05T07:38:26.241Z,25.86
2022-08-05T07:42:08.288Z,26.74
2022-08-05T07:43:53.153Z,27.28
2022-08-05T07:46:25.978Z,27.41
2022-08-05T07:49:02.328Z,27.48
2022-08-05T07:51:40.716Z,27.69
2022-08-05T07:54:11.431Z,28.43
2022-08-05T07:57:00.760Z,28.90
2022-08-05T07:59:39.076Z,29.39
2022-08-05T08:02:15.220Z,29.33
2022-08-05T08:04:44.875Z,29.72
2022-08-05T08:07:13.436Z,30.27
2022-08-05T08:09:41.362Z,30.23
2022-08-05T08:12:20.978Z,30.39
2022-08-05T08:15:02.522Z,30.25
2022-08-05T08:17:31.794Z,30.26
2022-08-05T08:20:21.167Z,30.17
2022-08-05T08:22:52.563Z,29.95
2022-08-05T08:25:27.101Z,29.56
2022-08-05T08:28:18.467Z,29.54
2022-08-05T08:30:58.066Z,29.55
2022-08-05T08:33:28.011Z,29.04
2022-08-05T08:36:12.973Z,28.62
2022-08-05T08:38:53.128Z,28.24
2022-08-05T08:41:25.920Z,27.98
2022-08-05T08:45:24.012Z,27.89
2022-08-05T08:46:48.260Z,27.35
2022-08-05T08:50:05.787Z,27.16
2022-08-05T08:52:14.394Z,27.92
2022-08-05T08:54:44.588Z,27.82
2022-08-05T08:57:14.001Z,28.14
2022-08-05T08:59:47.183Z,28.31
2022-08-05T09:02:21.212Z,28.24
2022-08-05T09:05:16.392Z,28.37
2022-08-05T09:07:57.431Z,28.88
2022-08-05T09:10:27.140Z,28.75
2022-08-05T09:13:04.934Z,29.02
2022-08-05T09:15:36.755Z,28.95
2022-08-05T09:18:08.675Z,28.96
2022-08-05T09:20:38.295Z,29.16
2022-08-05T09:23:18.677Z,29.75
2022-08-05T09:26:02.045Z,29.91
2022-08-05T09:28:34.349Z,29.99
2022-08-05T09:31:18.109Z,30.24
2022-08-05T09:33:58.635Z,30.24
2022-08-05T09:36:54.323Z,29.65
2022-08-05T09:39:41.829Z,29.21
2022-08-05T09:42:23.391Z,28.78
2022-08-05T09:44:57.154Z,28.22
2022-08-05T09:47:48.051Z,27.95
2022-08-05T09:50:37.361Z,28.37
2022-08-05T09:53:07.058Z,28.96
2022-08-05T09:55:56.403Z,28.93
2022-08-05T09:58:29.195Z,29.14
2022-08-05T10:01:00.568Z,29.68
2022-08-05T10:03:56.909Z,29.78
2022-08-05T10:06:20.879Z,29.02
2022-08-05T10:08:53.806Z,28.23
2022-08-05T10:11:22.911Z,27.83
2022-08-05T10:13:54.711Z,27.56
2022-08-05T10:16:31.262Z,27.28
2022-08-05T10:19:00.774Z,27.18
2022-08-05T10:21:35.303Z,27.06
2022-08-05T10:24:10.748Z,27.22
2022-08-05T10:26:51.277Z,27.14
2022-08-05T10:29:23.640Z,27.14
2022-08-05T10:33:00.749Z,27.14
2022-08-05T10:35:01.021Z,27.07
2022-08-05T10:37:40.424Z,27.18
2022-08-05T10:40:28.134Z,27.04
2022-08-05T10:43:04.698Z,26.91
2022-08-05T10:45:41.682Z,26.78
2022-08-05T10:48:52.343Z,26.71
2022-08-05T10:51:28.764Z,26.55
2022-08-05T10:54:01.908Z,26.38
2022-08-05T10:56:45.821Z,26.19
2022-08-05T11:00:04.430Z,26.04
2022-08-05T11:02:14.469Z,25.97
2022-08-05T11:04:59.219Z,25.84
2022-08-05T11:07:33.117Z,25.72
2022-08-05T11:10:27.608Z,25.44
2022-08-05T11:12:58.286Z,25.21
2022-08-05T11:15:59.394Z,24.38
2022-08-05T11:18:30.174Z,23.36
2022-08-05T11:21:02.837Z,22.93
2022-08-05T11:24:05.500Z,22.84
2022-08-05T11:26:29.013Z,22.56
2022-08-05T11:29:12.007Z,22.35
2022-08-05T11:31:56.766Z,22.52
2022-08-05T11:34:52.095Z,22.61
2022-08-05T11:38:31.029Z,22.66
2022-08-05T11:41:35.699Z,22.68
2022-08-05T11:46:37.997Z,22.73
2022-08-05T11:49:26.124Z,22.87
2022-08-05T11:51:54.618Z,22.83
2022-08-05T11:54:34.007Z,23.14
2022-08-05T11:57:08.458Z,23.17
2022-08-05T11:59:53.537Z,23.20
2022-08-05T12:02:30.097Z,23.13
2022-08-05T12:05:07.027Z,23.11
2022-08-05T12:08:07.462Z,23.15
2022-08-05T12:10:43.589Z,23.22
2022-08-05T12:13:16.450Z,23.06
2022-08-05T12:15:49.880Z,23.11
2022-08-05T12:18:20.768Z,23.21
2022-08-05T12:20:52.703Z,23.15
2022-08-05T12:23:20.764Z,23.02
2022-08-05T12:25:56.945Z,22.83
2022-08-05T12:28:33.793Z,22.57
2022-08-05T12:31:03.698Z,22.37
2022-08-05T12:33:36.651Z,22.29
2022-08-05T12:36:09.002Z,22.10
2022-08-05T12:38:39.596Z,21.93
2022-08-05T12:41:13.803Z,21.80
2022-08-05T12:43:58.455Z,21.43
2022-08-05T12:46:31.241Z,21.12
2022-08-05T12:49:01.157Z,20.85
2022-08-05T12:52:13.716Z,20.64
2022-08-05T12:54:33.683Z,20.54
2022-08-05T12:57:04.005Z,20.40
2022-08-05T13:00:08.214Z,20.38
2022-08-05T13:02:39.892Z,20.35
2022-08-05T13:05:11.252Z,20.35
2022-08-05T13:08:00.287Z,20.39
2022-08-05T13:10:32.218Z,20.43
2022-08-05T13:13:00.506Z,20.46
2022-08-05T13:15:41.795Z,20.39
2022-08-05T13:18:20.634Z,20.47
2022-08-05T13:20:50.072Z,20.22
2022-08-05T13:23:22.395Z,20.44
2022-08-05T13:25:59.655Z,20.37
2022-08-05T13:28:32.328Z,20.35
2022-08-05T13:31:11.132Z,20.31
2022-08-05T13:34:22.858Z,20.27
2022-08-05T13:36:31.682Z,20.26
2022-08-05T13:38:59.610Z,20.48
2022-08-05T13:41:36.065Z,20.53
2022-08-05T13:44:06.301Z,20.58
2022-08-05T13:46:50.805Z,20.57
2022-08-05T13:49:24.038Z,20.56
2022-08-05T13:51:52.079Z,20.52
2022-08-05T13:54:25.137Z,20.55
2022-08-05T13:56:54.590Z,20.57
2022-08-05T13:59:27.008Z,20.59
2022-08-05T14:01:59.005Z,20.57
2022-08-05T14:04:49.219Z,20.54
2022-08-05T14:07:25.715Z,20.49
2022-08-05T14:10:08.627Z,20.37
2022-08-05T14:12:37.045Z,20.30
2022-08-05T14:16:04.795Z,20.18
2022-08-05T14:17:54.898Z,20.04
2022-08-05T14:20:29.613Z,19.99
2022-08-05T14:22:58.250Z,19.90
2022-08-05T14:25:28.381Z,19.80
2022-08-05T14:27:58.641Z,19.78
2022-08-05T14:30:28.073Z,19.82
2022-08-05T14:32:57.065Z,19.83
2022-08-05T14:35:37.039Z,19.77
2022-08-05T14:38:31.735Z,19.74
2022-08-05T14:41:05.851Z,19.84
2022-08-05T14:44:01.905Z,19.84
2022-08-05T14:46:28.423Z,19.88
2022-08-05T14:49:03.442Z,19.88
2022-08-05T14:51:36.191Z,19.57
2022-08-05T14:54:28.458Z,19.77
2022-08-05T14:56:55.936Z,19.90
2022-08-05T14:59:24.447Z,19.91
2022-08-05T15:01:53.798Z,19.89
2022-08-05T15:04:23.693Z,19.89
2022-08-05T15:06:57.015Z,19.93
2022-08-05T15:09:52.403Z,19.90
2022-08-05T15:12:27.025Z,19.92
2022-08-05T15:14:56.109Z,19.94
2022-08-05T15:17:46.789Z,19.94
2022-08-05T15:20:17.183Z,19.91
2022-08-05T15:22:54.238Z,19.90
2022-08-05T15:25:52.968Z,19.91
2022-08-05T15:28:16.178Z,19.86
2022-08-05T15:30:45.757Z,19.85
2022-08-05T15:33:56.864Z,19.70
2022-08-05T15:36:04.013Z,19.82
2022-08-05T15:38:35.815Z,19.86
2022-08-05T15:41:23.210Z,19.94
2022-08-05T15:43:52.471Z,19.97
2022-08-05T15:46:24.627Z,19.99
2022-08-05T15:49:00.671Z,20.01
2022-08-05T15:52:04.023Z,19.95
2022-08-05T15:54:18.655Z,19.89
2022-08-05T15:56:48.797Z,19.84
2022-08-05T15:59:21.719Z,19.60
2022-08-05T16:01:52.363Z,19.91
2022-08-05T16:04:25.126Z,19.95
2022-08-05T16:06:55.580Z,20.36
2022-08-05T16:09:23.946Z,20.62
2022-08-05T16:11:54.327Z,20.89
2022-08-05T16:14:22.741Z,20.82
2022-08-05T16:16:51.006Z,20.73
2022-08-05T16:20:03.754Z,20.49
2022-08-05T16:22:10.672Z,20.46
2022-08-05T16:24:41.897Z,20.38
2022-08-05T16:27:46.897Z,20.28
2022-08-05T16:30:25.918Z,20.21
2022-08-05T16:32:55.090Z,20.20
2022-08-05T16:35:28.101Z,20.06
2022-08-05T16:38:15.435Z,20.01
2022-08-05T16:40:51.700Z,20.00
2022-08-05T16:43:26.692Z,19.97
2022-08-05T16:46:04.011Z,19.95
2022-08-05T16:48:41.000Z,19.93
2022-08-05T16:51:10.772Z,19.85
2022-08-05T16:54:03.089Z,19.83
2022-08-05T16:56:30.170Z,19.83
2022-08-05T16:59:00.886Z,19.61
2022-08-05T17:01:53.957Z,19.78
2022-08-05T17:04:21.045Z,19.63
2022-08-05T17:06:53.103Z,19.65
2022-08-05T17:09:22.979Z,19.66
2022-08-05T17:11:55.918Z,19.69
2022-08-05T17:14:37.422Z,19.69
2022-08-05T17:17:14.289Z,19.70
2022-08-05T17:19:46.147Z,19.68
2022-08-05T17:22:17.870Z,19.63
2022-08-05T17:24:57.921Z,19.64
2022-08-05T17:27:34.306Z,19.61
2022-08-05T17:30:12.265Z,19.72
2022-08-05T17:32:47.157Z,19.76
2022-08-05T17:35:20.926Z,19.75
2022-08-05T17:37:50.558Z,19.77
2022-08-05T17:40:22.539Z,19.63
2022-08-05T17:42:53.165Z,19.73
2022-08-05T17:45:29.557Z,19.69
2022-08-05T17:48:07.985Z,19.67
2022-08-05T17:50:36.562Z,19.55
2022-08-05T17:53:08.450Z,19.66
2022-08-05T17:55:37.898Z,19.70
2022-08-05T17:58:11.153Z,19.54
2022-08-05T18:00:45.339Z,19.50
2022-08-05T18:06:11.935Z,19.73
2022-08-05T18:08:44.231Z,19.75
2022-08-05T18:11:23.663Z,19.74
2022-08-05T18:14:04.284Z,19.73
2022-08-05T18:16:51.468Z,19.73
2022-08-05T18:19:22.675Z,19.72
2022-08-05T18:22:09.801Z,19.69
2022-08-05T18:24:39.926Z,19.76
2022-08-05T18:27:12.809Z,19.56
2022-08-05T18:29:53.720Z,19.75
2022-08-05T18:32:28.063Z,19.74
2022-08-05T18:34:57.914Z,19.57
2022-08-05T18:37:34.198Z,19.73
2022-08-05T18:40:34.288Z,19.69
2022-08-05T18:42:57.928Z,19.54
2022-08-05T18:45:41.311Z,19.41
2022-08-05T18:48:30.559Z,19.38
2022-08-05T18:52:05.516Z,19.30
2022-08-05T18:54:06.670Z,19.24
2022-08-05T18:56:38.036Z,19.16
2022-08-05T18:59:41.867Z,19.03
2022-08-05T19:01:56.969Z,18.98
2022-08-05T19:04:29.346Z,18.93
2022-08-05T19:06:57.613Z,18.86
2022-08-05T19:09:25.469Z,18.85
2022-08-05T19:12:00.458Z,18.79
2022-08-05T19:14:44.465Z,18.71
2022-08-05T19:17:18.100Z,18.56
2022-08-05T19:19:48.881Z,18.60
2022-08-05T19:22:17.785Z,18.64
2022-08-05T19:24:54.563Z,18.43
2022-08-05T19:27:30.443Z,18.35
2022-08-05T19:29:58.774Z,18.14
2022-08-05T19:32:27.714Z,18.15
2022-08-05T19:34:57.875Z,18.12
2022-08-05T19:37:29.848Z,18.05
2022-08-05T19:40:14.977Z,17.98
2022-08-05T19:43:04.787Z,17.93
2022-08-05T19:45:33.357Z,17.86
2022-08-05T19:48:06.007Z,17.57
2022-08-05T19:50:36.821Z,17.77
2022-08-05T19:53:09.611Z,17.78
2022-08-05T19:56:14.311Z,17.78
2022-08-05T19:58:29.368Z,17.71
2022-08-05T20:00:58.113Z,17.74
2022-08-05T20:03:27.377Z,17.83
2022-08-05T20:06:15.603Z,17.82
2022-08-05T20:08:47.459Z,17.79
2022-08-05T20:11:17.949Z,17.80
2022-08-05T20:13:58.980Z,17.77
2022-08-05T20:16:35.581Z,17.77
2022-08-05T20:19:03.766Z,17.76
2022-08-05T20:21:33.080Z,17.72
2022-08-05T20:24:01.427Z,17.72
2022-08-05T20:26:29.588Z,17.68
2022-08-05T20:29:00.680Z,17.71
2022-08-05T20:31:43.062Z,17.73
2022-08-05T20:34:17.934Z,17.69
2022-08-05T20:36:49.985Z,17.66
2022-08-05T20:39:18.158Z,17.67
2022-08-05T20:41:48.163Z,17.65
2022-08-05T20:44:30.612Z,17.62
2022-08-05T20:47:00.272Z,16.97
2022-08-05T20:49:28.608Z,17.63
2022-08-05T20:51:58.727Z,17.54
2022-08-05T20:54:42.758Z,17.48
2022-08-05T20:57:42.763Z,17.23
2022-08-05T21:00:19.873Z,17.64
2022-08-05T21:02:57.849Z,17.52
2022-08-05T21:05:26.002Z,17.60
2022-08-05T21:08:07.957Z,17.62
2022-08-05T21:10:36.167Z,17.64
2022-08-05T21:13:11.098Z,17.52
2022-08-05T21:15:46.153Z,17.32
2022-08-05T21:18:19.110Z,17.59
2022-08-05T21:20:47.238Z,17.55
2022-08-05T21:23:17.064Z,17.56
2022-08-05T21:25:45.592Z,17.53
2022-08-05T21:28:13.779Z,17.53
2022-08-05T21:30:46.669Z,17.52
2022-08-05T21:33:16.467Z,17.39
2022-08-05T21:35:58.581Z,17.48
2022-08-05T21:38:28.850Z,17.44
2022-08-05T21:40:56.802Z,17.42
2022-08-05T21:43:26.104Z,17.33
2022-08-05T21:46:01.834Z,17.44
2022-08-05T21:48:32.028Z,17.31
2022-08-05T21:51:01.428Z,17.23
2022-08-05T21:53:31.142Z,17.46
2022-08-05T21:56:09.758Z,17.45
2022-08-05T21:58:57.135Z,17.45
2022-08-05T22:01:26.233Z,17.37
2022-08-05T22:03:54.544Z,17.42
2022-08-05T22:06:36.988Z,17.41
2022-08-05T22:09:13.874Z,17.39
2022-08-05T22:11:46.708Z,17.38
2022-08-05T22:14:34.218Z,17.36
2022-08-05T22:17:07.027Z,17.41
2022-08-05T22:20:01.592Z,17.41
2022-08-05T22:22:28.182Z,17.32
2022-08-05T22:25:21.608Z,17.40
2022-08-05T22:28:09.537Z,17.39
2022-08-05T22:30:44.046Z,17.43
2022-08-05T22:33:57.134Z,17.44
2022-08-05T22:36:14.585Z,17.46
2022-08-05T22:38:43.240Z,17.47
2022-08-05T22:41:12.720Z,17.41
2022-08-05T22:43:43.194Z,17.50
2022-08-05T22:46:13.223Z,17.50
2022-08-05T22:48:43.254Z,17.51
2022-08-05T22:51:22.357Z,17.50
2022-08-05T22:53:51.066Z,17.43
2022-08-05T22:56:30.649Z,17.49
2022-08-05T22:59:03.264Z,17.37
2022-08-05T23:01:50.876Z,17.42
2022-08-05T23:04:20.765Z,17.39
2022-08-05T23:06:48.909Z,17.32
2022-08-05T23:09:27.278Z,17.26
2022-08-05T23:12:06.887Z,17.10
2022-08-05T23:14:34.832Z,16.79
2022-08-05T23:17:24.517Z,16.88
2022-08-05T23:20:03.489Z,16.69
2022-08-05T23:22:31.484Z,16.57
2022-08-05T23:25:01.044Z,16.33
2022-08-05T23:27:31.562Z,16.13
2022-08-05T23:30:11.702Z,15.93
2022-08-05T23:32:40.667Z,15.80
2022-08-05T23:35:13.770Z,15.72
2022-08-05T23:37:41.993Z,15.61
2022-08-05T23:40:12.097Z,15.43
2022-08-05T23:42:41.429Z,15.48
2022-08-05T23:45:16.188Z,15.43
2022-08-05T23:47:47.876Z,15.39
2022-08-05T23:50:17.095Z,15.36
2022-08-05T23:52:49.687Z,15.28
2022-08-05T23:55:19.281Z,15.27
2022-08-05T23:57:51.065Z,15.22
